Time,TemperatureF,DewpointF,PressureIn,WindDirection,WindDirectionDegrees,WindSpeedMPH,WindSpeedGustMPH,Humidity,HourlyPrecipIn,Conditions,Clouds,dailyrainin,SolarRadiationWatts/m^2,SoftwareType,DateUTC
2013-05-12 00:01:00,60.6,59.8,29.70,SSW,198,0.0,0.0,97,0.00,,OVC008,0.00,0.00,VWS V14.01,2013-05-12 04:01:00,
2013-05-12 00:06:00,60.5,59.7,29.70,SSW,198,0.0,2.0,97,0.00,,OVC010,0.00,0.00,VWS V14.01,2013-05-12 04:06:00,
2013-05-12 00:11:00,60.5,59.7,29.69,SSW,198,0.0,0.0,97,0.00,,OVC010,0.00,0.00,VWS V14.01,2013-05-12 04:11:00,
2013-05-12 00:16:00,60.4,59.8,29.69,SSW,198,0.0,0.0,98,0.00,,OVC010,0.00,0.00,VWS V14.01,2013-05-12 04:16:00,
2013-05-12 00:22:00,60.3,59.7,29.69,SSW,198,0.0,0.0,98,0.00,,OVC010,0.00,0.00,VWS V14.01,2013-05-12 04:22:00,
2013-05-12 00:27:00,60.3,59.7,29.69,SSW,198,0.0,0.0,98,0.00,,OVC010,0.00,0.00,VWS V14.01,2013-05-12 04:27:00,
2013-05-12 00:32:00,60.3,59.7,29.69,SSW,198,0.0,0.0,98,0.00,,OVC010,0.00,0.00,VWS V14.01,2013-05-12 04:32:00,
2013-05-12 00:37:00,60.3,59.7,29.69,SSW,198,0.0,0.0,98,0.00,,OVC010,0.00,0.00,VWS V14.01,2013-05-12 04:37:00,
2013-05-12 00:42:00,60.2,59.6,29.69,SSW,198,0.0,0.0,98,0.00,,OVC010,0.00,0.00,VWS V14.01,2013-05-12 04:42:00,
2013-05-12 00:47:00,60.2,59.6,29.68,SSW,198,0.0,0.0,98,0.00,,OVC010,0.00,0.00,VWS V14.01,2013-05-12 04:47:00,
2013-05-12 00:52:00,60.2,59.6,29.69,SSW,198,0.0,0.0,98,0.00,,OVC010,0.00,0.00,VWS V14.01,2013-05-12 04:52:00,
2013-05-12 00:57:00,60.2,59.6,29.68,SSW,198,0.0,1.0,98,0.00,,OVC010,0.00,0.00,VWS V14.01,2013-05-12 04:57:00,
2013-05-12 01:02:00,60.3,59.7,29.68,SSW,198,0.0,0.0,98,0.00,,OVC006,0.00,0.00,VWS V14.01,2013-05-12 05:02:00,
2013-05-12 01:07:00,60.4,59.8,29.68,SSW,198,0.0,0.0,98,0.00,,OVC006,0.00,0.00,VWS V14.01,2013-05-12 05:07:00,
2013-05-12 01:12:00,60.4,59.8,29.68,SSW,198,0.0,0.0,98,0.00,,OVC006,0.00,0.00,VWS V14.01,2013-05-12 05:12:00,
2013-05-12 01:17:00,60.5,59.9,29.68,SSW,198,0.0,0.0,98,0.00,,OVC006,0.00,0.00,VWS V14.01,2013-05-12 05:17:00,
2013-05-12 01:22:00,60.5,59.9,29.67,SSW,198,0.0,0.0,98,0.00,,OVC006,0.00,0.00,VWS V14.01,2013-05-12 05:22:00,
2013-05-12 01:27:00,60.5,59.9,29.68,SSW,198,0.0,0.0,98,0.00,,OVC006,0.00,0.00,VWS V14.01,2013-05-12 05:27:00,
2013-05-12 01:32:00,60.5,59.9,29.67,SSW,198,0.0,0.0,98,0.00,,OVC006,0.00,0.00,VWS V14.01,2013-05-12 05:32:00,
2013-05-12 01:37:00,60.5,59.9,29.68,SSW,198,0.0,0.0,98,0.00,,OVC006,0.00,0.00,VWS V14.01,2013-05-12 05:37:00,
2013-05-12 01:42:00,60.5,59.9,29.66,SSW,198,0.0,0.0,98,0.00,,OVC006,0.00,0.00,VWS V14.01,2013-05-12 05:42:00,
2013-05-12 01:47:00,60.5,59.9,29.67,SSW,198,0.0,0.0,98,0.00,,OVC006,0.00,0.00,VWS V14.01,2013-05-12 05:47:00,
2013-05-12 01:52:00,60.5,59.9,29.67,SSW,198,0.0,0.0,98,0.00,,OVC006,0.00,0.00,VWS V14.01,2013-05-12 05:52:00,
2013-05-12 01:57:00,60.5,59.9,29.67,SSW,198,0.0,0.0,98,0.00,,OVC006,0.00,0.00,VWS V14.01,2013-05-12 05:57:00,
2013-05-12 02:02:00,60.5,59.9,29.67,SSW,198,0.0,0.0,98,0.00,,OVC022,0.00,0.00,VWS V14.01,2013-05-12 06:02:00,
2013-05-12 02:07:00,60.5,59.9,29.67,SSW,198,0.0,0.0,98,0.00,,OVC022,0.00,0.00,VWS V14.01,2013-05-12 06:07:00,
2013-05-12 02:12:00,60.4,59.8,29.67,SSW,198,0.0,0.0,98,0.00,,OVC022,0.00,0.00,VWS V14.01,2013-05-12 06:12:00,
2013-05-12 02:17:00,60.4,59.8,29.66,SSW,198,0.0,0.0,98,0.00,,OVC022,0.00,0.00,VWS V14.01,2013-05-12 06:17:00,
2013-05-12 02:22:00,60.4,59.8,29.66,SSW,198,0.0,0.0,98,0.00,,OVC022,0.00,0.00,VWS V14.01,2013-05-12 06:22:00,
2013-05-12 02:27:00,60.3,59.7,29.66,SSW,198,0.0,0.0,98,0.00,,OVC022,0.00,0.00,VWS V14.01,2013-05-12 06:27:00,
2013-05-12 02:32:00,60.3,59.7,29.66,SSW,198,0.0,0.0,98,0.00,,BKN100,0.00,0.00,VWS V14.01,2013-05-12 06:32:00,
2013-05-12 02:37:00,60.2,59.6,29.66,SSW,198,0.0,0.0,98,0.00,,BKN100,0.00,0.00,VWS V14.01,2013-05-12 06:37:00,
2013-05-12 02:42:00,60.2,59.6,29.66,SSW,198,0.0,0.0,98,0.00,,BKN100,0.00,0.00,VWS V14.01,2013-05-12 06:42:00,
2013-05-12 02:48:00,60.2,59.6,29.66,SSW,198,0.0,0.0,98,0.00,,BKN100,0.00,0.00,VWS V14.01,2013-05-12 06:48:00,
2013-05-12 02:53:00,60.2,59.6,29.66,SSW,198,0.0,0.0,98,0.00,,BKN100,0.00,0.00,VWS V14.01,2013-05-12 06:53:00,
2013-05-12 02:58:00,60.2,59.6,29.66,SSW,198,0.0,0.0,98,0.00,,BKN100,0.00,0.00,VWS V14.01,2013-05-12 06:58:00,
2013-05-12 03:03:00,60.1,59.5,29.66,SSW,198,0.0,1.0,98,0.00,,SCT075,0.00,0.00,VWS V14.01,2013-05-12 07:03:00,
2013-05-12 03:08:00,60.2,59.6,29.66,SSW,198,0.0,1.0,98,0.00,,SCT075,0.00,0.00,VWS V14.01,2013-05-12 07:08:00,
2013-05-12 03:13:00,60.2,59.6,29.67,SSW,198,0.0,0.0,98,0.00,,SCT075,0.00,0.00,VWS V14.01,2013-05-12 07:13:00,
2013-05-12 03:18:00,60.2,59.6,29.67,SSW,198,0.0,0.0,98,0.00,,SCT075,0.00,0.00,VWS V14.01,2013-05-12 07:18:00,
2013-05-12 03:23:00,60.2,59.6,29.66,SSW,198,0.0,0.0,98,0.00,,SCT075,0.00,0.00,VWS V14.01,2013-05-12 07:23:00,
2013-05-12 03:28:00,60.2,59.6,29.65,SSW,198,0.0,1.0,98,0.00,,SCT075,0.00,0.00,VWS V14.01,2013-05-12 07:28:00,
2013-05-12 03:33:00,60.2,59.6,29.65,SSW,198,0.0,0.0,98,0.00,,,0.00,0.00,VWS V14.01,2013-05-12 07:33:00,
2013-05-12 03:38:00,60.2,59.6,29.64,SSW,198,0.0,1.0,98,0.00,,,0.00,0.00,VWS V14.01,2013-05-12 07:38:00,
2013-05-12 03:43:00,60.1,59.5,29.64,SSW,198,0.0,1.0,98,0.00,,,0.00,0.00,VWS V14.01,2013-05-12 07:43:00,
2013-05-12 03:48:00,60.1,59.5,29.64,SSW,198,0.0,2.0,98,0.00,,OVC027,0.00,0.00,VWS V14.01,2013-05-12 07:48:00,
2013-05-12 03:53:00,60.0,59.4,29.63,SSW,198,0.0,0.0,98,0.00,,OVC027,0.00,0.00,VWS V14.01,2013-05-12 07:53:00,
2013-05-12 03:58:00,59.8,59.2,29.63,SSW,198,0.0,0.0,98,0.00,,OVC027,0.00,0.00,VWS V14.01,2013-05-12 07:58:00,
2013-05-12 04:03:00,59.6,59.0,29.63,SSW,198,0.0,0.0,98,0.00,,OVC005,0.00,0.00,VWS V14.01,2013-05-12 08:03:00,
2013-05-12 04:08:00,59.5,58.9,29.63,SSW,198,0.0,0.0,98,0.00,,OVC005,0.00,0.00,VWS V14.01,2013-05-12 08:08:00,
2013-05-12 04:13:00,59.4,58.8,29.63,SSW,198,0.0,0.0,98,0.00,,OVC005,0.00,0.00,VWS V14.01,2013-05-12 08:13:00,
2013-05-12 04:18:00,59.4,58.8,29.63,SSW,198,0.0,0.0,98,0.00,,OVC005,0.00,0.00,VWS V14.01,2013-05-12 08:18:00,
2013-05-12 04:23:00,59.2,58.6,29.62,SSW,198,0.0,0.0,98,0.00,,OVC005,0.00,0.00,VWS V14.01,2013-05-12 08:23:00,
2013-05-12 04:28:00,59.1,58.5,29.63,SSW,198,0.0,0.0,98,0.00,,OVC005,0.00,0.00,VWS V14.01,2013-05-12 08:28:00,
2013-05-12 04:33:00,59.1,58.5,29.64,SSW,198,0.0,0.0,98,0.00,,OVC005,0.00,0.00,VWS V14.01,2013-05-12 08:33:00,
2013-05-12 04:38:00,59.0,58.4,29.63,SSW,198,0.0,0.0,98,0.00,,OVC005,0.00,0.00,VWS V14.01,2013-05-12 08:38:00,
2013-05-12 04:43:00,59.0,58.4,29.63,SSW,198,0.0,0.0,98,0.00,,OVC005,0.00,0.00,VWS V14.01,2013-05-12 08:43:00,
2013-05-12 04:48:00,59.0,58.4,29.64,SSW,198,0.0,0.0,98,0.00,,OVC005,0.00,0.00,VWS V14.01,2013-05-12 08:48:00,
2013-05-12 04:53:00,59.0,58.4,29.64,SSW,198,0.0,0.0,98,0.00,,OVC005,0.00,0.00,VWS V14.01,2013-05-12 08:53:00,
2013-05-12 04:58:00,59.0,58.4,29.65,SSW,198,0.0,0.0,98,0.00,,OVC005,0.00,0.00,VWS V14.01,2013-05-12 08:58:00,
2013-05-12 05:04:00,59.0,58.4,29.65,SSW,198,0.0,0.0,98,0.00,,OVC005,0.00,0.00,VWS V14.01,2013-05-12 09:04:00,
2013-05-12 05:09:00,59.1,58.5,29.64,SSW,198,0.0,0.0,98,0.00,,OVC005,0.00,0.00,VWS V14.01,2013-05-12 09:09:00,
2013-05-12 05:14:00,59.2,58.6,29.65,SSW,198,0.0,0.0,98,0.00,,OVC005,0.00,0.00,VWS V14.01,2013-05-12 09:14:00,
2013-05-12 05:19:00,59.3,58.7,29.64,SSW,198,0.0,1.0,98,0.00,,OVC005,0.00,0.00,VWS V14.01,2013-05-12 09:19:00,
2013-05-12 05:24:00,59.4,58.8,29.64,SSW,198,0.0,1.0,98,0.00,,OVC005,0.00,0.00,VWS V14.01,2013-05-12 09:24:00,
2013-05-12 05:29:00,59.5,58.9,29.63,SSW,198,0.0,1.0,98,0.00,,OVC005,0.00,0.00,VWS V14.01,2013-05-12 09:29:00,
2013-05-12 05:34:00,59.5,58.9,29.64,SSW,198,0.0,1.0,98,0.00,,OVC005,0.00,0.00,VWS V14.01,2013-05-12 09:34:00,
2013-05-12 05:39:00,59.5,58.9,29.64,SSW,198,0.0,1.0,98,0.00,,OVC005,0.00,0.00,VWS V14.01,2013-05-12 09:39:00,
2013-05-12 05:44:00,59.5,58.9,29.64,SSW,198,0.0,0.0,98,0.00,,OVC005,0.00,0.00,VWS V14.01,2013-05-12 09:44:00,
2013-05-12 05:49:00,59.5,58.9,29.64,SSW,198,0.0,0.0,98,0.01,,OVC005,0.01,0.00,VWS V14.01,2013-05-12 09:49:00,
2013-05-12 05:54:00,59.5,58.9,29.64,SSW,198,0.0,2.0,98,0.01,,OVC005,0.01,0.00,VWS V14.01,2013-05-12 09:54:00,
2013-05-12 05:59:00,59.5,58.9,29.65,SSW,198,0.0,2.0,98,0.01,,OVC005,0.01,0.00,VWS V14.01,2013-05-12 09:59:00,
2013-05-12 06:04:00,59.6,59.0,29.65,SSW,198,0.0,0.0,98,0.01,,OVC015,0.01,0.00,VWS V14.01,2013-05-12 10:04:00,
2013-05-12 06:09:00,59.5,58.9,29.65,SSW,198,0.0,2.0,98,0.01,,OVC015,0.01,0.00,VWS V14.01,2013-05-12 10:09:00,
2013-05-12 06:14:00,59.5,58.9,29.65,SSW,198,0.0,1.0,98,0.01,,OVC015,0.01,0.00,VWS V14.01,2013-05-12 10:14:00,
2013-05-12 06:19:00,59.5,58.9,29.65,SSW,198,0.0,1.0,98,0.01,,OVC015,0.01,0.00,VWS V14.01,2013-05-12 10:19:00,
2013-05-12 06:24:00,59.5,58.9,29.66,SSW,198,0.0,0.0,98,0.01,,OVC015,0.01,0.00,VWS V14.01,2013-05-12 10:24:00,
2013-05-12 06:29:00,59.5,58.9,29.66,SSW,198,0.0,0.0,98,0.01,,OVC015,0.01,0.00,VWS V14.01,2013-05-12 10:29:00,
2013-05-12 06:34:00,59.5,58.9,29.66,SSW,198,0.0,0.0,98,0.01,,OVC015,0.01,0.00,VWS V14.01,2013-05-12 10:34:00,
2013-05-12 06:39:00,59.5,58.9,29.66,SSW,198,0.0,0.0,98,0.01,,OVC015,0.01,0.00,VWS V14.01,2013-05-12 10:39:00,
2013-05-12 06:44:00,59.5,58.9,29.65,SSW,198,0.0,0.0,98,0.02,,OVC015,0.02,5.00,VWS V14.01,2013-05-12 10:44:00,
2013-05-12 06:49:00,59.6,59.0,29.64,SSW,198,0.0,0.0,98,0.02,,OVC015,0.02,19.00,VWS V14.01,2013-05-12 10:49:00,
2013-05-12 06:54:00,59.6,59.0,29.64,SSW,198,0.0,0.0,98,0.01,,OVC015,0.02,23.00,VWS V14.01,2013-05-12 10:54:00,
2013-05-12 06:59:00,59.6,59.0,29.64,SSW,198,0.0,0.0,98,0.01,,OVC015,0.02,30.00,VWS V14.01,2013-05-12 10:59:00,
2013-05-12 07:04:00,59.6,59.0,29.64,SSW,198,0.0,0.0,98,0.01,,OVC031,0.02,25.00,VWS V14.01,2013-05-12 11:04:00,
2013-05-12 07:09:00,59.7,59.1,29.64,SSW,198,0.0,0.0,98,0.01,,OVC031,0.02,49.00,VWS V14.01,2013-05-12 11:09:00,
2013-05-12 07:14:00,59.8,59.2,29.63,SSW,198,0.0,0.0,98,0.01,,OVC031,0.02,30.00,VWS V14.01,2013-05-12 11:14:00,
2013-05-12 07:19:00,59.8,59.2,29.64,SSW,198,0.0,0.0,98,0.01,,OVC031,0.02,18.00,VWS V14.01,2013-05-12 11:19:00,
2013-05-12 07:24:00,59.9,59.3,29.65,SSW,198,0.0,0.0,98,0.01,,OVC031,0.02,14.00,VWS V14.01,2013-05-12 11:24:00,
2013-05-12 07:30:00,59.9,59.3,29.65,SSW,198,0.0,0.0,98,0.01,,OVC031,0.02,21.00,VWS V14.01,2013-05-12 11:30:00,
2013-05-12 07:35:00,60.0,59.4,29.65,SSW,198,0.0,0.0,98,0.02,,OVC031,0.03,19.00,VWS V14.01,2013-05-12 11:35:00,
2013-05-12 07:40:00,60.0,59.4,29.65,SSW,198,0.0,0.0,98,0.02,,OVC031,0.03,19.00,VWS V14.01,2013-05-12 11:40:00,
2013-05-12 07:45:00,60.0,59.4,29.65,SSW,198,0.0,0.0,98,0.02,,OVC031,0.03,18.00,VWS V14.01,2013-05-12 11:45:00,
2013-05-12 07:50:00,60.0,59.4,29.64,SSW,198,0.0,0.0,98,0.02,,OVC031,0.03,42.00,VWS V14.01,2013-05-12 11:50:00,
2013-05-12 07:55:00,60.0,59.4,29.64,SSW,198,0.0,0.0,98,0.01,,OVC031,0.03,49.00,VWS V14.01,2013-05-12 11:55:00,
2013-05-12 08:00:00,60.0,59.4,29.64,SSW,198,0.0,0.0,98,0.01,,OVC031,0.03,47.00,VWS V14.01,2013-05-12 12:00:00,
2013-05-12 08:05:00,60.0,59.4,29.64,SSW,198,0.0,0.0,98,0.01,,-RA,0.03,37.00,VWS V14.01,2013-05-12 12:05:00,
2013-05-12 08:10:00,59.8,59.2,29.64,SSW,198,0.0,0.0,98,0.02,,-RA,0.04,40.00,VWS V14.01,2013-05-12 12:10:00,
2013-05-12 08:15:00,59.6,59.0,29.64,SSW,198,0.0,0.0,98,0.02,,-RA,0.04,72.00,VWS V14.01,2013-05-12 12:15:00,
2013-05-12 08:20:00,59.3,58.7,29.65,SSW,198,0.0,2.0,98,0.02,,-RA,0.04,42.00,VWS V14.01,2013-05-12 12:20:00,
2013-05-12 08:25:00,59.0,58.4,29.64,SSW,198,0.0,0.0,98,0.02,,-RA,0.04,88.00,VWS V14.01,2013-05-12 12:25:00,
2013-05-12 08:30:00,59.0,58.4,29.64,SSW,198,0.0,0.0,98,0.02,,-RA,0.04,125.00,VWS V14.01,2013-05-12 12:30:00,
2013-05-12 08:35:00,59.0,58.4,29.64,SSW,198,0.0,0.0,98,0.03,,-RA,0.05,104.00,VWS V14.01,2013-05-12 12:35:00,
2013-05-12 08:40:00,59.0,58.4,29.64,SSW,198,0.0,0.0,98,0.03,,-RA,0.05,113.00,VWS V14.01,2013-05-12 12:40:00,
2013-05-12 08:45:00,59.0,58.4,29.64,West,279,0.0,1.0,98,0.02,,-RA,0.05,84.00,VWS V14.01,2013-05-12 12:45:00,
2013-05-12 08:50:00,58.9,58.3,29.64,West,279,0.0,1.0,98,0.02,,-RA,0.05,69.00,VWS V14.01,2013-05-12 12:50:00,
2013-05-12 08:55:00,58.8,58.2,29.64,West,279,0.0,0.0,98,0.02,,-RA,0.05,83.00,VWS V14.01,2013-05-12 12:55:00,
2013-05-12 09:00:00,58.7,58.1,29.64,West,279,0.0,0.0,98,0.02,,-RA,0.05,81.00,VWS V14.01,2013-05-12 13:00:00,
2013-05-12 09:05:00,58.6,58.0,29.63,West,279,0.0,0.0,98,0.02,,OVC036,0.05,97.00,VWS V14.01,2013-05-12 13:05:00,
2013-05-12 09:10:00,58.5,57.9,29.63,West,279,0.0,0.0,98,0.01,,OVC036,0.05,77.00,VWS V14.01,2013-05-12 13:10:00,
2013-05-12 09:15:00,58.5,57.9,29.63,West,279,0.0,0.0,98,0.01,,OVC036,0.05,49.00,VWS V14.01,2013-05-12 13:15:00,
2013-05-12 09:20:00,58.4,57.8,29.64,West,279,0.0,0.0,98,0.01,,OVC036,0.05,51.00,VWS V14.01,2013-05-12 13:20:00,
2013-05-12 09:25:00,58.3,57.7,29.64,West,279,0.0,0.0,98,0.01,,OVC036,0.05,67.00,VWS V14.01,2013-05-12 13:25:00,
2013-05-12 09:30:00,58.3,57.7,29.62,West,279,0.0,0.0,98,0.01,,OVC036,0.05,160.00,VWS V14.01,2013-05-12 13:30:00,
2013-05-12 09:35:00,58.3,57.7,29.63,West,279,0.0,0.0,98,0.01,,OVC036,0.05,86.00,VWS V14.01,2013-05-12 13:35:00,
2013-05-12 09:40:00,58.7,58.1,29.63,West,279,0.0,0.0,98,0.00,,OVC036,0.05,84.00,VWS V14.01,2013-05-12 13:40:00,
2013-05-12 09:45:00,58.4,57.8,29.63,West,279,0.0,1.0,98,0.00,,OVC036,0.05,132.00,VWS V14.01,2013-05-12 13:45:00,
2013-05-12 09:50:00,58.2,57.6,29.63,West,279,0.0,0.0,98,0.00,,OVC036,0.05,220.00,VWS V14.01,2013-05-12 13:50:00,
2013-05-12 09:55:00,58.3,57.5,29.63,West,279,0.0,2.0,97,0.00,,OVC036,0.05,125.00,VWS V14.01,2013-05-12 13:55:00,
2013-05-12 10:00:00,58.3,57.5,29.63,West,279,0.0,0.0,97,0.00,,OVC036,0.05,98.00,VWS V14.01,2013-05-12 14:00:00,
2013-05-12 10:05:00,57.8,56.7,29.63,NNE,19,2.0,3.0,96,0.00,,OVC050,0.05,141.00,VWS V14.01,2013-05-12 14:05:00,
2013-05-12 10:10:00,57.5,56.1,29.63,NNE,19,0.0,0.0,95,0.00,,OVC050,0.05,202.00,VWS V14.01,2013-05-12 14:10:00,
2013-05-12 10:16:00,57.5,55.8,29.63,NNE,19,0.0,2.0,94,0.00,,OVC050,0.05,218.00,VWS V14.01,2013-05-12 14:16:00,
2013-05-12 10:21:00,57.6,55.6,29.63,NNE,20,0.0,0.0,93,0.00,,OVC050,0.05,218.00,VWS V14.01,2013-05-12 14:21:00,
2013-05-12 10:26:00,57.8,55.5,29.62,NNE,20,1.0,2.0,92,0.00,,OVC050,0.05,265.00,VWS V14.01,2013-05-12 14:26:00,
2013-05-12 10:31:00,58.1,55.2,29.63,NNE,15,0.0,1.0,90,0.00,,OVC050,0.05,192.00,VWS V14.01,2013-05-12 14:31:00,
2013-05-12 10:36:00,58.4,55.5,29.63,NNE,15,0.0,1.0,90,0.00,,OVC050,0.05,204.00,VWS V14.01,2013-05-12 14:36:00,
2013-05-12 10:41:00,58.5,54.3,29.62,NW,324,0.0,3.0,86,0.00,,OVC050,0.05,239.00,VWS V14.01,2013-05-12 14:41:00,
2013-05-12 10:46:00,58.8,54.6,29.62,NE,51,0.0,5.0,86,0.00,,OVC050,0.05,244.00,VWS V14.01,2013-05-12 14:46:00,
2013-05-12 10:51:00,59.0,54.5,29.62,NW,319,0.0,3.0,85,0.00,,OVC050,0.05,287.00,VWS V14.01,2013-05-12 14:51:00,
2013-05-12 10:56:00,59.0,53.8,29.62,WNW,287,0.0,6.0,83,0.00,,OVC050,0.05,265.00,VWS V14.01,2013-05-12 14:56:00,
2013-05-12 11:01:00,59.3,53.8,29.62,ESE,109,3.0,3.0,82,0.00,,OVC050,0.05,292.00,VWS V14.01,2013-05-12 15:01:00,
2013-05-12 11:06:00,59.5,53.3,29.62,NNE,15,0.0,4.0,80,0.00,,OVC044,0.05,179.00,VWS V14.01,2013-05-12 15:06:00,
2013-05-12 11:11:00,59.6,54.4,29.62,North,11,0.0,0.0,83,0.00,,OVC044,0.05,262.00,VWS V14.01,2013-05-12 15:11:00,
2013-05-12 11:16:00,59.8,54.6,29.62,North,5,2.0,3.0,83,0.00,,OVC044,0.05,271.00,VWS V14.01,2013-05-12 15:16:00,
2013-05-12 11:21:00,60.1,54.3,29.61,NNE,24,0.0,0.0,81,0.00,,OVC044,0.05,271.00,VWS V14.01,2013-05-12 15:21:00,
2013-05-12 11:26:00,60.4,54.5,29.61,NNW,344,2.0,3.0,81,0.00,,OVC044,0.05,373.00,VWS V14.01,2013-05-12 15:26:00,
2013-05-12 11:31:00,60.7,53.8,29.61,NNW,327,0.0,3.0,78,0.00,,OVC044,0.05,473.00,VWS V14.01,2013-05-12 15:31:00,
2013-05-12 11:36:00,61.0,53.8,29.61,NNW,327,0.0,3.0,77,0.00,,OVC044,0.05,425.00,VWS V14.01,2013-05-12 15:36:00,
2013-05-12 11:41:00,61.5,53.2,29.61,NNW,328,0.0,0.0,74,0.00,,OVC044,0.05,431.00,VWS V14.01,2013-05-12 15:41:00,
2013-05-12 11:46:00,62.0,52.9,29.61,NNE,18,2.0,4.0,72,0.00,,OVC044,0.05,404.00,VWS V14.01,2013-05-12 15:46:00,
2013-05-12 11:51:00,62.3,53.9,29.62,ENE,60,0.0,0.0,74,0.00,,OVC044,0.05,341.00,VWS V14.01,2013-05-12 15:51:00,
2013-05-12 11:56:00,62.6,54.2,29.61,North,11,2.0,5.0,74,0.00,,OVC044,0.05,469.00,VWS V14.01,2013-05-12 15:56:00,
2013-05-12 12:01:00,63.1,53.9,29.61,NNW,347,0.0,0.0,72,0.00,,OVC044,0.05,585.00,VWS V14.01,2013-05-12 16:01:00,
2013-05-12 12:06:00,63.7,55.3,29.61,NE,52,1.0,4.0,74,0.00,,OVC046,0.05,631.00,VWS V14.01,2013-05-12 16:06:00,
2013-05-12 12:11:00,64.6,55.4,29.61,NW,304,0.0,3.0,72,0.00,,OVC046,0.05,617.00,VWS V14.01,2013-05-12 16:11:00,
2013-05-12 12:16:00,65.0,54.6,29.61,ENE,66,0.0,3.0,69,0.00,,OVC046,0.05,446.00,VWS V14.01,2013-05-12 16:16:00,
2013-05-12 12:22:00,65.3,55.7,29.61,ENE,66,0.0,1.0,71,0.00,,OVC046,0.05,445.00,VWS V14.01,2013-05-12 16:22:00,
2013-05-12 12:27:00,65.4,55.0,29.61,ENE,66,0.0,2.0,69,0.00,,OVC046,0.05,471.00,VWS V14.01,2013-05-12 16:27:00,
2013-05-12 12:32:00,65.7,54.9,29.61,ENE,66,1.0,3.0,68,0.00,,OVC046,0.05,290.00,VWS V14.01,2013-05-12 16:32:00,
2013-05-12 12:37:00,65.6,54.0,29.60,ENE,66,0.0,3.0,66,0.00,,OVC046,0.05,193.00,VWS V14.01,2013-05-12 16:37:00,
2013-05-12 12:42:00,65.4,53.8,29.60,ENE,66,0.0,2.0,66,0.00,,OVC046,0.05,336.00,VWS V14.01,2013-05-12 16:42:00,
2013-05-12 12:47:00,65.4,55.8,29.60,ENE,66,2.0,3.0,71,0.00,,OVC046,0.05,517.00,VWS V14.01,2013-05-12 16:47:00,
2013-05-12 12:52:00,65.8,54.5,29.60,ENE,66,0.0,3.0,67,0.00,,OVC046,0.05,475.00,VWS V14.01,2013-05-12 16:52:00,
2013-05-12 12:57:00,66.1,53.6,29.60,SW,226,0.0,3.0,64,0.00,,OVC046,0.05,309.00,VWS V14.01,2013-05-12 16:57:00,
2013-05-12 13:02:00,66.2,53.7,29.60,SW,226,0.0,2.0,64,0.00,,BKN055,0.05,221.00,VWS V14.01,2013-05-12 17:02:00,
2013-05-12 13:07:00,65.8,54.1,29.60,SW,217,1.0,2.0,66,0.00,,BKN055,0.05,265.00,VWS V14.01,2013-05-12 17:07:00,
2013-05-12 13:12:00,65.5,53.8,29.61,SW,217,2.0,2.0,66,0.00,,BKN055,0.05,438.00,VWS V14.01,2013-05-12 17:12:00,
2013-05-12 13:17:00,66.0,54.7,29.61,SSE,155,2.0,3.0,67,0.00,,BKN055,0.05,478.00,VWS V14.01,2013-05-12 17:17:00,
2013-05-12 13:22:00,67.0,54.0,29.61,SW,222,0.0,3.0,63,0.00,,BKN055,0.05,478.00,VWS V14.01,2013-05-12 17:22:00,
2013-05-12 13:27:00,67.7,55.5,29.60,SE,145,0.0,4.0,65,0.00,,BKN055,0.05,350.00,VWS V14.01,2013-05-12 17:27:00,
2013-05-12 13:32:00,68.7,56.5,29.60,SSW,211,0.0,4.0,65,0.00,,BKN055,0.05,1056.00,VWS V14.01,2013-05-12 17:32:00,
2013-05-12 13:37:00,69.6,54.2,29.59,WSW,246,2.0,4.0,58,0.00,,BKN055,0.05,1097.00,VWS V14.01,2013-05-12 17:37:00,
2013-05-12 13:42:00,69.8,54.8,29.59,NNW,327,2.0,4.0,59,0.00,,BKN055,0.05,1165.00,VWS V14.01,2013-05-12 17:42:00,
2013-05-12 13:47:00,70.4,55.4,29.59,North,5,3.0,4.0,59,0.00,,BKN055,0.05,1111.00,VWS V14.01,2013-05-12 17:47:00,
2013-05-12 13:52:00,70.7,53.8,29.59,SSE,148,0.0,2.0,55,0.00,,BKN055,0.05,311.00,VWS V14.01,2013-05-12 17:52:00,
2013-05-12 13:57:00,70.4,54.5,29.59,SSE,158,0.0,3.0,57,0.00,,BKN055,0.05,364.00,VWS V14.01,2013-05-12 17:57:00,
2013-05-12 14:02:00,70.2,53.8,29.59,South,187,0.0,2.0,56,0.00,,BKN075,0.05,209.00,VWS V14.01,2013-05-12 18:02:00,
2013-05-12 14:07:00,70.2,55.2,29.59,SSW,198,0.0,3.0,59,0.00,,BKN075,0.05,258.00,VWS V14.01,2013-05-12 18:07:00,
2013-05-12 14:12:00,70.2,54.8,29.59,SSW,194,1.0,5.0,58,0.00,,BKN075,0.05,1113.00,VWS V14.01,2013-05-12 18:12:00,
2013-05-12 14:17:00,70.1,52.7,29.58,SW,223,0.0,5.0,54,0.00,,BKN075,0.05,316.00,VWS V14.01,2013-05-12 18:17:00,
2013-05-12 14:22:00,69.8,53.4,29.58,SSW,200,3.0,5.0,56,0.00,,BKN075,0.05,1000.00,VWS V14.01,2013-05-12 18:22:00,
2013-05-12 14:27:00,70.0,53.1,29.57,SSE,157,0.0,5.0,55,0.00,,BKN075,0.05,193.00,VWS V14.01,2013-05-12 18:27:00,
2013-05-12 14:32:00,70.0,53.6,29.57,South,182,1.0,5.0,56,0.00,,BKN075,0.05,216.00,VWS V14.01,2013-05-12 18:32:00,
2013-05-12 14:37:00,69.8,53.9,29.57,South,182,0.0,5.0,57,0.00,,BKN075,0.05,322.00,VWS V14.01,2013-05-12 18:37:00,
2013-05-12 14:42:00,70.0,52.1,29.57,South,182,0.0,2.0,53,0.00,,BKN075,0.05,237.00,VWS V14.01,2013-05-12 18:42:00,
2013-05-12 14:48:00,70.2,52.8,29.57,ESE,108,0.0,3.0,54,0.00,,BKN075,0.05,330.00,VWS V14.01,2013-05-12 18:48:00,
2013-05-12 14:53:00,70.1,52.7,29.57,SW,228,0.0,11.0,54,0.00,,BKN075,0.05,239.00,VWS V14.01,2013-05-12 18:53:00,
2013-05-12 14:58:00,69.5,52.2,29.57,SW,228,0.0,11.0,54,0.00,,BKN075,0.05,411.00,VWS V14.01,2013-05-12 18:58:00,
2013-05-12 15:03:00,69.6,51.7,29.57,SW,228,0.0,1.0,53,0.00,,OVC080,0.05,295.00,VWS V14.01,2013-05-12 19:03:00,
2013-05-12 15:08:00,70.2,53.8,29.57,West,268,0.0,4.0,56,0.00,,OVC080,0.05,376.00,VWS V14.01,2013-05-12 19:08:00,
2013-05-12 15:13:00,70.7,53.3,29.57,South,173,0.0,4.0,54,0.00,,OVC080,0.05,918.00,VWS V14.01,2013-05-12 19:13:00,
2013-05-12 15:18:00,71.3,52.3,29.57,SSW,198,1.0,4.0,51,0.00,,OVC080,0.05,353.00,VWS V14.01,2013-05-12 19:18:00,
2013-05-12 15:23:00,71.4,52.3,29.57,WNW,286,1.0,5.0,51,0.00,,OVC080,0.05,817.00,VWS V14.01,2013-05-12 19:23:00,
2013-05-12 15:28:00,71.9,52.3,29.57,NW,323,1.0,5.0,50,0.00,,OVC080,0.05,819.00,VWS V14.01,2013-05-12 19:28:00,
2013-05-12 15:33:00,71.9,51.2,29.57,SW,217,0.0,3.0,48,0.00,,OVC080,0.05,142.00,VWS V14.01,2013-05-12 19:33:00,
2013-05-12 15:38:00,71.0,50.9,29.57,South,184,0.0,4.0,49,0.00,,OVC080,0.05,169.00,VWS V14.01,2013-05-12 19:38:00,
2013-05-12 15:43:00,70.1,51.2,29.57,SSW,212,0.0,3.0,51,0.00,,OVC080,0.05,199.00,VWS V14.01,2013-05-12 19:43:00,
2013-05-12 15:48:00,69.4,51.5,29.58,SW,226,0.0,5.0,53,0.00,,OVC080,0.05,197.00,VWS V14.01,2013-05-12 19:48:00,
2013-05-12 15:53:00,69.1,51.3,29.58,SE,128,1.0,2.0,53,0.00,,OVC080,0.05,258.00,VWS V14.01,2013-05-12 19:53:00,
2013-05-12 15:58:00,69.5,52.2,29.58,North,11,6.0,6.0,54,0.00,,OVC080,0.05,803.00,VWS V14.01,2013-05-12 19:58:00,
2013-05-12 16:03:00,70.3,50.3,29.58,ENE,68,2.0,3.0,49,0.00,,BKN095,0.05,719.00,VWS V14.01,2013-05-12 20:03:00,
2013-05-12 16:08:00,70.2,51.2,29.58,ESE,120,1.0,3.0,51,0.00,,BKN095,0.05,229.00,VWS V14.01,2013-05-12 20:08:00,
2013-05-12 16:13:00,69.5,50.1,29.58,NNE,13,0.0,4.0,50,0.00,,BKN095,0.05,171.00,VWS V14.01,2013-05-12 20:13:00,
2013-05-12 16:18:00,68.7,49.3,29.58,West,271,0.0,4.0,50,0.00,,BKN095,0.05,132.00,VWS V14.01,2013-05-12 20:18:00,
2013-05-12 16:23:00,68.0,49.7,29.58,West,272,0.0,2.0,52,0.00,,BKN095,0.05,120.00,VWS V14.01,2013-05-12 20:23:00,
2013-05-12 16:28:00,67.7,49.5,29.58,NNW,329,0.0,4.0,52,0.00,,BKN095,0.05,227.00,VWS V14.01,2013-05-12 20:28:00,
2013-05-12 16:33:00,67.6,49.4,29.58,NNW,329,0.0,2.0,52,0.00,,BKN095,0.05,120.00,VWS V14.01,2013-05-12 20:33:00,
2013-05-12 16:38:00,67.1,49.9,29.59,NNE,26,4.0,7.0,54,0.00,,BKN095,0.05,151.00,VWS V14.01,2013-05-12 20:38:00,
2013-05-12 16:43:00,66.7,50.0,29.59,SW,218,2.0,7.0,55,0.00,,BKN095,0.05,287.00,VWS V14.01,2013-05-12 20:43:00,
2013-05-12 16:48:00,67.0,50.3,29.60,WNW,295,2.0,7.0,55,0.00,,BKN095,0.05,645.00,VWS V14.01,2013-05-12 20:48:00,
2013-05-12 16:53:00,67.2,50.0,29.60,SW,229,1.0,9.0,54,0.00,,BKN095,0.05,348.00,VWS V14.01,2013-05-12 20:53:00,
2013-05-12 16:58:00,66.8,49.1,29.61,West,266,1.0,10.0,53,0.00,,BKN095,0.05,255.00,VWS V14.01,2013-05-12 20:58:00,
2013-05-12 17:03:00,65.9,48.8,29.61,WSW,240,3.0,4.0,54,0.00,,SCT065,0.05,237.00,VWS V14.01,2013-05-12 21:03:00,
2013-05-12 17:08:00,64.8,47.8,29.62,WSW,256,3.0,12.0,54,0.00,,SCT065,0.05,186.00,VWS V14.01,2013-05-12 21:08:00,
2013-05-12 17:13:00,63.5,47.1,29.63,NW,325,2.0,12.0,55,0.00,,SCT065,0.05,162.00,VWS V14.01,2013-05-12 21:13:00,
2013-05-12 17:19:00,62.3,46.0,29.63,SW,217,1.0,12.0,55,0.00,,SCT065,0.05,128.00,VWS V14.01,2013-05-12 21:19:00,
2013-05-12 17:24:00,61.4,45.6,29.64,SW,236,2.0,3.0,56,0.00,,SCT065,0.05,114.00,VWS V14.01,2013-05-12 21:24:00,
2013-05-12 17:29:00,60.6,45.3,29.64,NNE,12,2.0,5.0,57,0.00,,SCT065,0.05,125.00,VWS V14.01,2013-05-12 21:29:00,
2013-05-12 17:34:00,60.1,44.8,29.64,SE,144,0.0,4.0,57,0.00,,SCT065,0.05,127.00,VWS V14.01,2013-05-12 21:34:00,
2013-05-12 17:39:00,59.8,44.5,29.64,NW,326,0.0,6.0,57,0.00,,SCT065,0.05,142.00,VWS V14.01,2013-05-12 21:39:00,
2013-05-12 17:44:00,59.6,45.3,29.64,SSE,167,0.0,3.0,59,0.00,,SCT065,0.05,165.00,VWS V14.01,2013-05-12 21:44:00,
2013-05-12 17:49:00,59.6,44.4,29.65,SSE,168,0.0,3.0,57,0.00,,SCT065,0.05,135.00,VWS V14.01,2013-05-12 21:49:00,
2013-05-12 17:54:00,59.5,44.3,29.65,WNW,301,0.0,5.0,57,0.00,,SCT065,0.05,128.00,VWS V14.01,2013-05-12 21:54:00,
2013-05-12 17:59:00,59.3,44.1,29.65,NNW,341,0.0,5.0,57,0.00,,SCT065,0.05,109.00,VWS V14.01,2013-05-12 21:59:00,
2013-05-12 18:04:00,59.1,43.0,29.65,NW,325,0.0,4.0,55,0.00,,BKN065,0.05,105.00,VWS V14.01,2013-05-12 22:04:00,
2013-05-12 18:09:00,59.0,41.9,29.65,SW,217,0.0,5.0,53,0.00,,BKN065,0.05,113.00,VWS V14.01,2013-05-12 22:09:00,
2013-05-12 18:14:00,59.0,41.9,29.66,WSW,242,0.0,10.0,53,0.00,,BKN065,0.05,111.00,VWS V14.01,2013-05-12 22:14:00,
2013-05-12 18:19:00,59.0,41.9,29.65,South,178,0.0,10.0,53,0.00,,BKN065,0.05,97.00,VWS V14.01,2013-05-12 22:19:00,
2013-05-12 18:24:00,59.0,41.4,29.66,SSW,209,0.0,0.0,52,0.00,,BKN065,0.05,83.00,VWS V14.01,2013-05-12 22:24:00,
2013-05-12 18:29:00,59.0,41.4,29.66,ESE,116,0.0,4.0,52,0.00,,BKN065,0.05,42.00,VWS V14.01,2013-05-12 22:29:00,
2013-05-12 18:34:00,58.7,41.1,29.66,SW,224,1.0,15.0,52,0.00,,BKN065,0.05,39.00,VWS V14.01,2013-05-12 22:34:00,
2013-05-12 18:39:00,58.2,39.2,29.67,East,82,3.0,15.0,49,0.00,,BKN065,0.05,44.00,VWS V14.01,2013-05-12 22:39:00,
2013-05-12 18:44:00,57.8,39.3,29.67,NNW,345,0.0,11.0,50,0.00,,BKN065,0.05,51.00,VWS V14.01,2013-05-12 22:44:00,
2013-05-12 18:49:00,57.5,39.0,29.68,NNW,344,0.0,11.0,50,0.00,,BKN065,0.05,62.00,VWS V14.01,2013-05-12 22:49:00,
2013-05-12 18:54:00,57.2,38.2,29.68,East,85,5.0,9.0,49,0.00,,BKN065,0.05,58.00,VWS V14.01,2013-05-12 22:54:00,
2013-05-12 18:59:00,57.1,39.2,29.68,ESE,104,1.0,9.0,51,0.00,,BKN065,0.05,33.00,VWS V14.01,2013-05-12 22:59:00,
2013-05-12 19:04:00,56.9,39.0,29.69,NW,316,0.0,5.0,51,0.00,,FEW070,0.05,28.00,VWS V14.01,2013-05-12 23:04:00,
2013-05-12 19:09:00,56.6,38.7,29.69,WSW,257,0.0,5.0,51,0.00,,FEW070,0.05,28.00,VWS V14.01,2013-05-12 23:09:00,
2013-05-12 19:14:00,56.4,38.5,29.69,WSW,252,1.0,5.0,51,0.00,,FEW070,0.05,28.00,VWS V14.01,2013-05-12 23:14:00,
2013-05-12 19:19:00,56.2,39.3,29.70,East,82,0.0,5.0,53,0.00,,FEW070,0.05,26.00,VWS V14.01,2013-05-12 23:19:00,
2013-05-12 19:24:00,55.9,38.0,29.70,NW,320,0.0,2.0,51,0.00,,FEW070,0.05,25.00,VWS V14.01,2013-05-12 23:24:00,
2013-05-12 19:29:00,55.8,37.5,29.70,West,277,0.0,4.0,50,0.00,,FEW070,0.05,23.00,VWS V14.01,2013-05-12 23:29:00,
2013-05-12 19:35:00,55.9,35.4,29.70,SW,235,0.0,5.0,46,0.00,,FEW070,0.05,19.00,VWS V14.01,2013-05-12 23:35:00,
2013-05-12 19:40:00,55.9,34.3,29.71,SW,221,1.0,5.0,44,0.00,,FEW070,0.05,14.00,VWS V14.01,2013-05-12 23:40:00,
2013-05-12 19:45:00,55.8,34.2,29.71,SW,226,2.0,6.0,44,0.00,,FEW070,0.05,9.00,VWS V14.01,2013-05-12 23:45:00,
2013-05-12 19:50:00,55.6,32.9,29.72,SSW,206,0.0,6.0,42,0.00,,FEW070,0.05,7.00,VWS V14.01,2013-05-12 23:50:00,
2013-05-12 19:55:00,55.4,33.3,29.72,SW,230,0.0,4.0,43,0.00,,FEW070,0.05,0.00,VWS V14.01,2013-05-12 23:55:00,
2013-05-12 20:00:00,55.0,33.5,29.72,SW,217,1.0,7.0,44,0.00,,FEW070,0.05,0.00,VWS V14.01,2013-05-13 00:00:00,
2013-05-12 20:05:00,54.6,32.0,29.72,East,92,1.0,4.0,42,0.00,,CLR,0.05,0.00,VWS V14.01,2013-05-13 00:05:00,
2013-05-12 20:10:00,54.4,32.4,29.73,WNW,294,0.0,4.0,43,0.00,,CLR,0.05,0.00,VWS V14.01,2013-05-13 00:10:00,
2013-05-12 20:15:00,54.2,31.0,29.73,WSW,244,0.0,4.0,41,0.00,,CLR,0.05,0.00,VWS V14.01,2013-05-13 00:15:00,
2013-05-12 20:20:00,54.0,32.0,29.73,WSW,244,0.0,4.0,43,0.00,,CLR,0.05,0.00,VWS V14.01,2013-05-13 00:20:00,
2013-05-12 20:25:00,53.7,31.2,29.74,WSW,244,0.0,2.0,42,0.00,,CLR,0.05,0.00,VWS V14.01,2013-05-13 00:25:00,
2013-05-12 20:30:00,53.4,31.5,29.74,WSW,244,0.0,2.0,43,0.00,,CLR,0.05,0.00,VWS V14.01,2013-05-13 00:30:00,
2013-05-12 20:35:00,52.9,32.2,29.74,WSW,244,2.0,2.0,45,0.00,,CLR,0.05,0.00,VWS V14.01,2013-05-13 00:35:00,
2013-05-12 20:40:00,52.6,31.3,29.74,WNW,298,0.0,2.0,44,0.00,,CLR,0.05,0.00,VWS V14.01,2013-05-13 00:40:00,
2013-05-12 20:45:00,52.4,32.2,29.74,NW,311,0.0,3.0,46,0.00,,CLR,0.05,0.00,VWS V14.01,2013-05-13 00:45:00,
2013-05-12 20:50:00,52.1,32.0,29.74,NW,311,0.0,0.0,46,0.00,,,0.05,0.00,VWS V14.01,2013-05-13 00:50:00,
2013-05-12 20:55:00,51.7,32.1,29.74,NW,311,0.0,0.0,47,0.00,,,0.05,0.00,VWS V14.01,2013-05-13 00:55:00,
2013-05-12 21:00:00,51.5,32.5,29.74,NW,311,0.0,0.0,48,0.00,,,0.05,0.00,VWS V14.01,2013-05-13 01:00:00,
2013-05-12 21:05:00,51.2,32.7,29.75,NW,311,0.0,0.0,49,0.00,,CLR,0.05,0.00,VWS V14.01,2013-05-13 01:05:00,
2013-05-12 21:10:00,50.9,32.4,29.75,NW,311,0.0,0.0,49,0.00,,CLR,0.05,0.00,VWS V14.01,2013-05-13 01:10:00,
2013-05-12 21:15:00,50.6,32.2,29.75,NW,311,0.0,0.0,49,0.00,,CLR,0.05,0.00,VWS V14.01,2013-05-13 01:15:00,
2013-05-12 21:20:00,50.3,32.9,29.75,NW,311,0.0,0.0,51,0.00,,CLR,0.05,0.00,VWS V14.01,2013-05-13 01:20:00,
2013-05-12 21:25:00,50.1,32.7,29.76,NW,311,0.0,0.0,51,0.00,,CLR,0.05,0.00,VWS V14.01,2013-05-13 01:25:00,
2013-05-12 21:30:00,49.7,33.3,29.76,NW,311,0.0,0.0,53,0.00,,CLR,0.05,0.00,VWS V14.01,2013-05-13 01:30:00,
2013-05-12 21:35:00,49.4,33.5,29.76,NW,311,0.0,0.0,54,0.00,,CLR,0.05,0.00,VWS V14.01,2013-05-13 01:35:00,
2013-05-12 21:40:00,49.2,33.7,29.76,NW,312,0.0,0.0,55,0.00,,CLR,0.05,0.00,VWS V14.01,2013-05-13 01:40:00,
2013-05-12 21:45:00,48.9,32.1,29.77,NW,311,0.0,0.0,52,0.00,,CLR,0.05,0.00,VWS V14.01,2013-05-13 01:45:00,
2013-05-12 21:50:00,48.7,32.3,29.77,NW,311,0.0,0.0,53,0.00,,CLR,0.05,0.00,VWS V14.01,2013-05-13 01:50:00,
2013-05-12 21:56:00,48.6,32.7,29.76,NW,311,0.0,0.0,54,0.00,,CLR,0.05,0.00,VWS V14.01,2013-05-13 01:56:00,
2013-05-12 22:01:00,48.4,33.0,29.76,NW,311,0.0,0.0,55,0.00,,CLR,0.05,0.00,VWS V14.01,2013-05-13 02:01:00,
2013-05-12 22:06:00,48.3,32.4,29.77,NW,311,0.0,0.0,54,0.00,,CLR,0.05,0.00,VWS V14.01,2013-05-13 02:06:00,
2013-05-12 22:11:00,48.4,33.4,29.77,NW,311,0.0,0.0,56,0.00,,CLR,0.05,0.00,VWS V14.01,2013-05-13 02:11:00,
2013-05-12 22:16:00,48.3,32.9,29.77,NW,311,0.0,1.0,55,0.00,,CLR,0.05,0.00,VWS V14.01,2013-05-13 02:16:00,
2013-05-12 22:21:00,48.2,33.3,29.77,NW,311,0.0,0.0,56,0.00,,CLR,0.05,0.00,VWS V14.01,2013-05-13 02:21:00,
2013-05-12 22:26:00,48.2,32.8,29.77,NW,311,0.0,1.0,55,0.00,,CLR,0.05,0.00,VWS V14.01,2013-05-13 02:26:00,
2013-05-12 22:31:00,48.3,33.3,29.77,NW,311,0.0,0.0,56,0.00,,CLR,0.05,0.00,VWS V14.01,2013-05-13 02:31:00,
2013-05-12 22:36:00,48.2,33.3,29.78,NW,311,0.0,1.0,56,0.00,,CLR,0.05,0.00,VWS V14.01,2013-05-13 02:36:00,
2013-05-12 22:41:00,48.1,33.2,29.78,NW,311,0.0,0.0,56,0.00,,CLR,0.05,0.00,VWS V14.01,2013-05-13 02:41:00,
2013-05-12 22:46:00,47.9,32.5,29.78,NW,311,0.0,0.0,55,0.00,,CLR,0.05,0.00,VWS V14.01,2013-05-13 02:46:00,
2013-05-12 22:51:00,47.8,33.3,29.78,NW,311,0.0,0.0,57,0.00,,CLR,0.05,0.00,VWS V14.01,2013-05-13 02:51:00,
2013-05-12 22:56:00,47.5,33.5,29.78,NW,311,0.0,0.0,58,0.00,,CLR,0.05,0.00,VWS V14.01,2013-05-13 02:56:00,
2013-05-12 23:01:00,47.3,33.3,29.79,NW,311,0.0,0.0,58,0.00,,CLR,0.05,0.00,VWS V14.01,2013-05-13 03:01:00,
2013-05-12 23:06:00,47.0,33.4,29.79,NW,311,0.0,1.0,59,0.00,,CLR,0.05,0.00,VWS V14.01,2013-05-13 03:06:00,
2013-05-12 23:11:00,46.8,33.7,29.79,NW,311,0.0,0.0,60,0.00,,CLR,0.05,0.00,VWS V14.01,2013-05-13 03:11:00,
2013-05-12 23:16:00,46.5,32.5,29.79,NW,311,0.0,0.0,58,0.00,,CLR,0.05,0.00,VWS V14.01,2013-05-13 03:16:00,
2013-05-12 23:21:00,46.5,33.0,29.80,NW,311,0.0,0.0,59,0.00,,CLR,0.05,0.00,VWS V14.01,2013-05-13 03:21:00,
2013-05-12 23:26:00,46.4,32.9,29.80,NW,311,0.0,3.0,59,0.00,,CLR,0.05,0.00,VWS V14.01,2013-05-13 03:26:00,
2013-05-12 23:31:00,46.3,33.2,29.80,NW,311,0.0,0.0,60,0.00,,CLR,0.05,0.00,VWS V14.01,2013-05-13 03:31:00,
2013-05-12 23:36:00,46.2,33.1,29.80,NW,311,0.0,0.0,60,0.00,,CLR,0.05,0.00,VWS V14.01,2013-05-13 03:36:00,
2013-05-12 23:41:00,46.0,33.3,29.81,NW,311,0.0,0.0,61,0.00,,CLR,0.05,0.00,VWS V14.01,2013-05-13 03:41:00,
2013-05-12 23:46:00,45.9,32.4,29.81,ESE,122,0.0,4.0,59,0.00,,CLR,0.05,0.00,VWS V14.01,2013-05-13 03:46:00,
2013-05-12 23:51:00,45.8,32.3,29.81,ESE,122,0.0,0.0,59,0.00,,CLR,0.05,0.00,VWS V14.01,2013-05-13 03:51:00,
2013-05-12 23:56:00,45.7,32.6,29.81,ESE,122,0.0,0.0,60,0.00,,CLR,0.05,0.00,VWS V14.01,2013-05-13 03:56:00,